Accueil
METAR-TAF:

METAR-TAF

Aéroports :

Base aérienne de Büchel

Büchel, Allemagne

latitude: 50-10N, longitude: 007-04E, altitude: 478 m

Observation

Le bulletin a été fait il y a 19 minutes, à 20:20 UTC
Vent 3 kt de ouest
Température 10°C
Humidité 71%
Pression 1030 hPa

METAR: ETSB 062020Z AUTO 27003KT //// // ////// 10/05 Q1030 ///

Heure: 22:39 (20:39 UTC)

Prévision

Le bulletin a été fait il y a 7 heures et 35 minutes, à 13:04 UTC
Prévision valable du 06 à 14 UTC au 06 à 23 UTC
Vent 5 kt de ouest
Visibilité 10 km ou plus
Quelques nuages à une hauteur de 3000 ft
Nuages épars à une hauteur de 30000 ft

TAF: ETSB 061304Z 0614/0623 26005KT 9999 NSW FEW030 SCT300 BY ETGL

Observations et prévisions météorologiques de plus de 4000 aéroports (messages METAR et TAF).

Les stations disponibles sont représentées par des disques jaunes et rouges sur la carte.

Passer la souris dessus pour voir le nom de la station.

Cliquer dessus pour voir les observations et prévisions météorologiques.

Pour changer de carte: cliquez sur les boutons verts avec une croix noire pour zoomer, sur le bouton vert avec un tiret pour effectuer un zoom arrière, ou sur les flèches vertes pour les cartes adjacentes.


METAR-TAF: